Time;durP1;ratioP1;P1;durP2;ratioP2;P2;SDS_P1;SDS_P2;PMS_P1;PMS_P2;Temp;Humidity;BMP_temperature;BMP_pressure;BME280_temperature;BME280_humidity;BME280_pressure;Samples;Min_cycle;Max_cycle;Signal;HPM_P1;HPM_P2
2021/11/04 00:02:05;;;;;;;1.15;0.52;;;;;;;25.55;36.23;95037.13;4988576;28;20026;-59
2021/11/04 00:04:31;;;;;;;1.48;0.80;;;;;;;25.54;36.28;95045.94;4991768;28;20038;-59
2021/11/04 00:06:56;;;;;;;1.73;0.90;;;;;;;25.55;36.17;95044.97;5009207;28;20038;-58
2021/11/04 00:09:22;;;;;;;1.58;0.70;;;;;;;25.55;36.16;95047.59;4988835;28;20033;-58
2021/11/04 00:11:47;;;;;;;1.08;0.68;;;;;;;25.56;36.27;95038.81;4988150;28;20030;-58
2021/11/04 00:14:13;;;;;;;0.80;0.70;;;;;;;25.55;36.09;95029.25;4987210;28;20026;-59
2021/11/04 00:16:38;;;;;;;1.45;0.95;;;;;;;25.56;36.22;95032.75;4983741;28;20421;-59
2021/11/04 00:19:03;;;;;;;0.93;0.60;;;;;;;25.55;35.97;95033.69;4979845;28;20037;-59
2021/11/04 00:21:29;;;;;;;4.13;0.75;;;;;;;25.56;36.09;95023.06;4985178;28;20040;-59
2021/11/04 00:23:54;;;;;;;0.45;0.45;;;;;;;25.56;36.24;95015.19;4981177;28;20159;-60
2021/11/04 00:26:20;;;;;;;1.30;0.60;;;;;;;25.55;36.04;95005.63;5000531;28;20044;-55
2021/11/04 00:28:45;;;;;;;1.85;0.60;;;;;;;25.55;36.25;95003.00;4984409;28;20089;-59
2021/11/04 00:31:12;;;;;;;1.00;0.90;;;;;;;25.55;35.99;94989.91;5005978;28;20034;-59
2021/11/04 00:33:37;;;;;;;1.13;0.68;;;;;;;25.53;36.13;94981.34;5000798;28;20029;-59
2021/11/04 00:36:03;;;;;;;0.70;0.70;;;;;;;25.56;36.10;94975.03;4983314;28;20036;-59
2021/11/04 00:38:28;;;;;;;2.80;0.80;;;;;;;25.56;36.12;94977.66;4991148;28;20033;-57
2021/11/04 00:40:55;;;;;;;2.90;0.73;;;;;;;25.54;36.13;94985.63;4988196;28;20030;-60
2021/11/04 00:43:20;;;;;;;0.47;0.45;;;;;;;25.56;36.05;94996.84;4989231;28;20030;-57
2021/11/04 00:45:46;;;;;;;1.40;0.70;;;;;;;25.55;36.07;95003.00;4987751;28;20084;-58
2021/11/04 00:48:11;;;;;;;3.10;0.70;;;;;;;25.54;36.08;95003.97;4989276;28;20033;-58
2021/11/04 00:50:37;;;;;;;0.80;0.60;;;;;;;25.55;36.15;95016.13;4991647;28;20033;-58
2021/11/04 00:53:02;;;;;;;1.02;0.50;;;;;;;25.56;36.07;95038.00;4990656;28;20025;-57
2021/11/04 00:55:28;;;;;;;0.52;0.52;;;;;;;25.55;36.12;95044.97;4991125;28;20042;-58
2021/11/04 00:57:53;;;;;;;1.17;0.68;;;;;;;25.55;36.06;95052.84;4981377;28;20018;-60
2021/11/04 01:00:19;;;;;;;0.55;0.40;;;;;;;25.55;36.10;95058.09;4995032;28;20034;-59
2021/11/04 01:02:44;;;;;;;1.88;0.57;;;;;;;25.54;36.16;95064.31;4994614;28;20485;-59
2021/11/04 01:05:10;;;;;;;0.38;0.38;;;;;;;25.54;36.13;95059.06;4987911;28;20041;-59
2021/11/04 01:07:36;;;;;;;0.85;0.57;;;;;;;25.53;36.32;95054.78;4992965;28;20026;-60
2021/11/04 01:10:02;;;;;;;0.40;0.40;;;;;;;25.54;36.19;95045.94;4994406;28;20033;-59
2021/11/04 01:12:27;;;;;;;1.20;0.60;;;;;;;25.54;35.97;95050.34;4990976;28;20029;-59
2021/11/04 01:14:53;;;;;;;0.47;0.47;;;;;;;25.54;36.18;95056.44;4989941;28;20026;-59
2021/11/04 01:17:18;;;;;;;0.95;0.70;;;;;;;25.54;36.04;95040.69;4990698;28;20322;-57
2021/11/04 01:19:43;;;;;;;0.70;0.50;;;;;;;25.54;36.08;95037.22;4980464;28;20584;-58
2021/11/04 01:22:09;;;;;;;1.45;0.82;;;;;;;25.53;36.25;95032.94;4992818;28;20540;-61
2021/11/04 01:24:34;;;;;;;0.52;0.50;;;;;;;25.53;36.18;95033.78;5006036;28;20042;-58
2021/11/04 01:27:00;;;;;;;0.73;0.70;;;;;;;25.52;36.10;95032.09;4991148;28;20045;-59
2021/11/04 01:29:25;;;;;;;0.35;0.32;;;;;;;25.53;36.15;95032.94;4992121;28;20025;-60
2021/11/04 01:31:50;;;;;;;1.50;0.65;;;;;;;25.54;36.21;95027.59;5006775;28;20044;-59
2021/11/04 01:34:16;;;;;;;0.43;0.40;;;;;;;25.54;36.03;95016.25;4991183;28;20037;-61
2021/11/04 01:36:41;;;;;;;0.60;0.40;;;;;;;25.54;36.06;95011.00;4993364;28;20061;-59
2021/11/04 01:39:07;;;;;;;0.40;0.35;;;;;;;25.53;36.10;95012.81;4994076;28;20764;-59
2021/11/04 01:41:32;;;;;;;0.60;0.60;;;;;;;25.54;36.03;95008.38;4992947;28;20041;-59
2021/11/04 01:43:58;;;;;;;1.17;0.50;;;;;;;25.53;36.01;95004.09;4994663;28;20042;-58
2021/11/04 01:46:23;;;;;;;0.45;0.40;;;;;;;25.53;36.17;95010.19;5009425;28;20089;-58
2021/11/04 01:48:49;;;;;;;0.40;0.40;;;;;;;25.53;36.24;95018.06;5007368;28;20041;-59
2021/11/04 01:51:14;;;;;;;0.40;0.40;;;;;;;25.53;35.94;95012.81;4995049;28;20087;-61
2021/11/04 01:53:40;;;;;;;0.80;0.50;;;;;;;25.53;36.03;95007.56;5015454;28;20214;-60
2021/11/04 01:56:06;;;;;;;0.60;0.50;;;;;;;25.53;36.06;95010.19;4992554;28;20520;-61
2021/11/04 01:58:31;;;;;;;0.95;0.70;;;;;;;25.52;35.98;95008.50;4990912;28;20044;-60
2021/11/04 02:00:57;;;;;;;1.23;0.63;;;;;;;25.52;36.03;94995.38;4991473;28;20539;-58
2021/11/04 02:03:31;;;;;;;1.52;0.70;;;;;;;25.52;35.98;95000.63;4981899;28;20038;-59
2021/11/04 02:06:16;;;;;;;1.23;0.40;;;;;;;25.52;35.97;95021.63;4970245;28;20036;-58
2021/11/04 02:08:53;;;;;;;0.50;0.50;;;;;;;25.52;35.99;95029.47;5003786;28;20034;-59
2021/11/04 02:11:20;;;;;;;1.67;0.60;;;;;;;25.52;35.97;95032.09;5008773;28;20248;-60
2021/11/04 02:13:58;;;;;;;4.68;0.98;;;;;;;25.52;35.99;95031.28;4982984;28;20519;-59
2021/11/04 02:16:24;;;;;;;1.25;0.52;;;;;;;25.51;36.03;95035.69;5011117;28;20129;-60
2021/11/04 02:18:51;;;;;;;0.75;0.38;;;;;;;25.51;35.98;95043.56;4995022;28;20401;-58
2021/11/04 02:21:33;;;;;;;0.63;0.40;;;;;;;25.49;36.03;95042.88;5009149;28;20021;-57
2021/11/04 02:24:35;;;;;;;0.30;0.30;;;;;;;25.50;35.97;95055.00;4981271;28;20209;-58
2021/11/04 02:27:01;;;;;;;2.17;0.45;;;;;;;25.50;36.05;95060.25;4995189;28;20053;-57
2021/11/04 02:29:26;;;;;;;0.50;0.20;;;;;;;25.49;35.95;95063.84;4985837;28;20038;-58
2021/11/04 02:31:52;;;;;;;0.40;0.30;;;;;;;25.49;35.94;95055.97;4996012;28;20030;-57
2021/11/04 02:34:17;;;;;;;1.20;0.40;;;;;;;25.49;35.98;95053.34;4992605;28;20034;-58
2021/11/04 02:36:43;;;;;;;0.63;0.30;;;;;;;25.49;35.98;95063.84;4988437;28;20033;-58
2021/11/04 02:39:09;;;;;;;0.75;0.28;;;;;;;25.50;35.87;95062.03;5007014;28;20034;-56
2021/11/04 02:41:35;;;;;;;0.30;0.30;;;;;;;25.49;35.88;95057.75;4990687;28;20449;-59
2021/11/04 02:44:00;;;;;;;0.50;0.30;;;;;;;25.49;35.89;95069.09;4985957;28;20049;-58
2021/11/04 02:46:27;;;;;;;0.40;0.40;;;;;;;25.48;35.79;95064.81;4986655;28;20030;-60
2021/11/04 02:48:52;;;;;;;0.45;0.40;;;;;;;25.49;35.91;95069.09;4990042;28;20188;-58
2021/11/04 02:51:17;;;;;;;1.02;0.50;;;;;;;25.49;35.90;95065.63;5004268;28;20201;-59
2021/11/04 02:53:46;;;;;;;0.65;0.38;;;;;;;25.49;35.89;95074.34;4993006;28;20037;-59
2021/11/04 02:56:14;;;;;;;0.85;0.40;;;;;;;25.49;35.86;95071.72;4993220;28;20068;-59
2021/11/04 02:58:40;;;;;;;1.08;0.50;;;;;;;25.49;35.54;95074.34;5006477;28;20030;-59
2021/11/04 03:01:05;;;;;;;0.50;0.30;;;;;;;25.48;35.26;95077.06;5007423;28;20590;-58
2021/11/04 03:03:31;;;;;;;0.40;0.25;;;;;;;25.48;35.40;95083.16;5013897;28;20061;-58
2021/11/04 03:05:57;;;;;;;2.10;0.50;;;;;;;25.47;35.68;95081.47;4991663;28;20021;-57
2021/11/04 03:08:24;;;;;;;2.40;0.50;;;;;;;25.48;35.70;95088.41;5006700;28;20071;-57
2021/11/04 03:10:51;;;;;;;2.58;0.50;;;;;;;25.48;35.78;95087.56;4991108;28;20347;-57
2021/11/04 03:13:16;;;;;;;1.02;0.28;;;;;;;25.47;35.85;95084.09;5005187;28;20042;-57
2021/11/04 03:15:45;;;;;;;0.73;0.30;;;;;;;25.46;35.78;95074.56;5011907;28;20048;-58
2021/11/04 03:18:10;;;;;;;0.35;0.22;;;;;;;25.48;35.87;95082.31;4987873;28;20087;-59
2021/11/04 03:20:36;;;;;;;0.20;0.20;;;;;;;25.48;35.73;95088.41;4972278;28;20283;-60
2021/11/04 03:23:03;;;;;;;0.65;0.40;;;;;;;25.48;35.92;95088.41;4988069;28;20113;-60
2021/11/04 03:25:28;;;;;;;0.30;0.30;;;;;;;25.48;35.90;95088.41;5005584;28;20060;-57
2021/11/04 03:27:54;;;;;;;1.88;0.43;;;;;;;25.48;36.04;95077.91;4989632;28;20034;-58
2021/11/04 03:30:24;;;;;;;0.52;0.30;;;;;;;25.48;36.05;95077.91;4986933;28;20603;-60
2021/11/04 03:32:49;;;;;;;0.32;0.30;;;;;;;25.48;35.93;95082.31;4983270;28;20040;-60
2021/11/04 03:35:15;;;;;;;0.40;0.40;;;;;;;25.49;36.06;95078.72;4999082;28;20423;-58
2021/11/04 03:37:42;;;;;;;0.30;0.20;;;;;;;25.49;35.95;95074.34;5008823;28;20030;-58
2021/11/04 03:40:08;;;;;;;0.20;0.20;;;;;;;25.48;35.87;95070.03;4993006;28;20124;-60
2021/11/04 03:42:34;;;;;;;1.10;0.40;;;;;;;25.49;35.88;95068.25;4990961;28;20031;-57
2021/11/04 03:44:59;;;;;;;0.40;0.25;;;;;;;25.49;36.04;95063.84;5001061;28;20030;-60
2021/11/04 03:47:25;;;;;;;0.35;0.32;;;;;;;25.48;35.68;95062.19;4992546;28;20029;-60
2021/11/04 03:49:51;;;;;;;0.65;0.38;;;;;;;25.50;35.98;95068.13;5004377;28;20029;-60
2021/11/04 03:52:17;;;;;;;0.25;0.20;;;;;;;25.48;35.90;95051.69;4989845;28;20025;-58
2021/11/04 03:54:43;;;;;;;0.32;0.30;;;;;;;25.48;35.84;95056.94;4991799;28;20049;-57
2021/11/04 03:57:08;;;;;;;0.20;0.20;;;;;;;25.49;36.03;95063.00;5009778;28;20034;-58
2021/11/04 03:59:34;;;;;;;1.17;0.32;;;;;;;25.48;35.87;95067.44;4987682;28;20036;-59
2021/11/04 04:01:59;;;;;;;0.98;0.40;;;;;;;25.49;35.94;95069.09;5001082;28;20026;-59
2021/11/04 04:04:24;;;;;;;1.98;0.40;;;;;;;25.47;35.91;95060.50;5007699;28;20033;-59
2021/11/04 04:06:53;;;;;;;0.40;0.30;;;;;;;25.47;36.03;95063.13;5005161;28;20032;-59
2021/11/04 04:09:19;;;;;;;0.10;0.10;;;;;;;25.48;35.89;95059.56;4986936;28;20064;-58
2021/11/04 04:11:45;;;;;;;0.20;0.20;;;;;;;25.49;35.80;95063.84;5006968;28;20026;-57
2021/11/04 04:14:10;;;;;;;0.20;0.20;;;;;;;25.48;36.00;95072.66;4991168;28;20032;-58
2021/11/04 04:16:35;;;;;;;0.70;0.20;;;;;;;25.49;35.95;95078.72;4992123;28;20599;-59
2021/11/04 04:19:01;;;;;;;1.75;0.47;;;;;;;25.48;35.84;95079.69;4993174;28;20029;-60
2021/11/04 04:21:26;;;;;;;0.65;0.22;;;;;;;25.48;35.89;95077.91;4986583;28;20045;-56
2021/11/04 04:23:52;;;;;;;0.20;0.20;;;;;;;25.48;35.84;95085.78;5006616;28;20029;-58
2021/11/04 04:26:17;;;;;;;0.88;0.30;;;;;;;25.48;35.94;95088.41;4987327;28;20033;-56
2021/11/04 04:28:42;;;;;;;0.70;0.20;;;;;;;25.48;35.92;95093.66;4986420;28;20116;-58
2021/11/04 04:31:08;;;;;;;0.38;0.35;;;;;;;25.50;35.94;95101.38;4982896;28;20120;-60
2021/11/04 04:33:33;;;;;;;0.10;0.10;;;;;;;25.49;35.83;95100.56;4985745;28;20049;-58
2021/11/04 04:35:59;;;;;;;1.02;0.20;;;;;;;25.49;36.01;95110.19;4985131;28;20056;-59
2021/11/04 04:38:24;;;;;;;0.22;0.22;;;;;;;25.48;36.00;95104.13;4990654;28;20585;-58
2021/11/04 04:40:50;;;;;;;0.30;0.20;;;;;;;25.48;35.85;95098.91;5002445;28;20408;-59
2021/11/04 04:43:16;;;;;;;0.20;0.20;;;;;;;25.48;35.87;95101.53;4989256;28;20440;-59
2021/11/04 04:45:43;;;;;;;0.20;0.20;;;;;;;25.47;35.96;95101.63;5000305;28;20038;-60
2021/11/04 04:48:08;;;;;;;0.20;0.20;;;;;;;25.48;36.01;95104.13;4989380;28;20397;-58
2021/11/04 04:50:34;;;;;;;0.88;0.10;;;;;;;25.47;35.97;95107.69;4991655;28;20038;-58
2021/11/04 04:52:59;;;;;;;0.20;0.20;;;;;;;25.48;35.82;95108.53;4986582;28;20029;-58
2021/11/04 04:55:24;;;;;;;0.35;0.20;;;;;;;25.47;35.96;95118.19;4990403;28;20784;-58
2021/11/04 04:57:50;;;;;;;0.25;0.25;;;;;;;25.47;35.84;95115.56;4990310;28;20045;-60
2021/11/04 05:00:16;;;;;;;0.15;0.13;;;;;;;25.47;35.89;95112.94;5006473;28;20030;-59
2021/11/04 05:02:42;;;;;;;0.30;0.20;;;;;;;25.47;35.81;95123.44;4992662;28;20469;-59
2021/11/04 05:05:08;;;;;;;0.57;0.30;;;;;;;25.46;35.74;95121.78;5004789;28;20250;-59
2021/11/04 05:07:34;;;;;;;0.20;0.20;;;;;;;25.46;35.80;95127.00;4986147;28;20129;-58
2021/11/04 05:10:01;;;;;;;2.08;0.20;;;;;;;25.47;35.94;95128.69;5002382;28;20927;-59
2021/11/04 05:12:26;;;;;;;0.30;0.30;;;;;;;25.46;35.62;95132.25;4988569;28;20026;-59
2021/11/04 05:14:52;;;;;;;0.10;0.10;;;;;;;25.45;35.55;95136.66;4990001;28;20030;-57
2021/11/04 05:17:17;;;;;;;0.65;0.20;;;;;;;25.45;35.72;95130.59;5001771;28;20078;-60
2021/11/04 05:19:43;;;;;;;0.20;0.20;;;;;;;25.44;35.81;95134.19;4987840;28;20496;-59
2021/11/04 05:22:08;;;;;;;0.32;0.20;;;;;;;25.45;35.74;95141.09;4987389;28;20544;-61
2021/11/04 05:24:34;;;;;;;0.10;0.10;;;;;;;25.44;35.79;95136.81;4992723;28;20532;-58
2021/11/04 05:27:03;;;;;;;0.47;0.20;;;;;;;25.44;35.74;95149.91;4987675;28;20045;-60
2021/11/04 05:29:30;;;;;;;0.50;0.40;;;;;;;25.45;35.82;95143.72;4987073;28;20129;-59
2021/11/04 05:31:56;;;;;;;0.45;0.20;;;;;;;25.43;35.86;95146.44;4993744;28;20028;-60
2021/11/04 05:34:21;;;;;;;2.28;0.28;;;;;;;25.43;35.87;95142.97;4987994;28;20400;-58
2021/11/04 05:36:46;;;;;;;0.10;0.10;;;;;;;25.44;35.96;95145.47;4990558;28;20459;-58
2021/11/04 05:39:12;;;;;;;0.73;0.35;;;;;;;25.44;35.92;95148.09;4987145;28;20026;-57
2021/11/04 05:41:37;;;;;;;0.40;0.20;;;;;;;25.44;35.88;95152.53;4990849;28;20092;-60
2021/11/04 05:44:03;;;;;;;0.52;0.22;;;;;;;25.44;35.89;95165.66;4991844;28;20088;-58
2021/11/04 05:46:28;;;;;;;0.20;0.20;;;;;;;25.44;36.00;95165.66;4995781;28;20037;-59
2021/11/04 05:48:54;;;;;;;0.45;0.22;;;;;;;25.43;35.69;95167.44;4996597;28;20327;-59
2021/11/04 05:51:19;;;;;;;0.32;0.20;;;;;;;25.43;35.93;95169.19;4984998;28;20034;-58
2021/11/04 05:53:44;;;;;;;0.08;0.08;;;;;;;25.44;35.84;95165.66;4991202;28;20038;-59
2021/11/04 05:56:10;;;;;;;0.20;0.15;;;;;;;25.44;35.83;95163.03;4987272;28;20088;-57
2021/11/04 05:58:35;;;;;;;0.17;0.17;;;;;;;25.44;35.77;95165.66;4983477;28;20033;-60
2021/11/04 06:01:01;;;;;;;0.20;0.17;;;;;;;25.43;35.87;95170.06;4985371;28;20105;-58
2021/11/04 06:03:26;;;;;;;0.20;0.20;;;;;;;25.43;35.92;95172.66;4994480;28;20026;-58
2021/11/04 06:05:51;;;;;;;0.10;0.10;;;;;;;25.43;35.84;95184.94;4995990;28;20026;-55
2021/11/04 06:08:17;;;;;;;0.20;0.20;;;;;;;25.43;35.82;95195.44;4990588;28;20513;-59
2021/11/04 06:10:42;;;;;;;0.35;0.17;;;;;;;25.43;35.88;95195.44;4992155;28;20065;-58
2021/11/04 06:13:08;;;;;;;0.20;0.20;;;;;;;25.43;35.75;95195.44;5007656;28;20034;-59
2021/11/04 06:15:33;;;;;;;0.20;0.15;;;;;;;25.43;35.87;95201.53;4991574;28;20029;-55
2021/11/04 06:17:58;;;;;;;0.22;0.20;;;;;;;25.41;35.81;95203.44;4992528;28;20030;-58
2021/11/04 06:20:24;;;;;;;0.17;0.17;;;;;;;25.42;35.78;95209.50;4987713;28;20026;-59
2021/11/04 06:22:49;;;;;;;0.10;0.10;;;;;;;25.42;35.87;95204.25;4983365;28;20202;-61
2021/11/04 06:25:15;;;;;;;0.20;0.20;;;;;;;25.43;35.73;95216.41;4990372;28;20030;-59
2021/11/04 06:27:40;;;;;;;0.95;0.10;;;;;;;25.42;35.82;95218.22;4999010;28;20061;-58
2021/11/04 06:30:06;;;;;;;0.20;0.20;;;;;;;25.42;35.88;95220.00;4990260;28;20073;-59
2021/11/04 06:32:34;;;;;;;0.17;0.13;;;;;;;25.43;35.84;95221.66;4981568;28;20574;-59
2021/11/04 06:34:59;;;;;;;0.40;0.20;;;;;;;25.42;35.81;95225.22;5009623;28;20022;-58
2021/11/04 06:37:25;;;;;;;0.30;0.20;;;;;;;25.42;35.78;95228.69;4996797;28;20392;-59
2021/11/04 06:39:50;;;;;;;0.10;0.10;;;;;;;25.41;35.78;95224.41;4992645;28;20022;-59
2021/11/04 06:42:16;;;;;;;0.00;0.00;;;;;;;25.41;35.85;95224.41;4997626;28;20504;-58
2021/11/04 06:44:41;;;;;;;0.90;0.20;;;;;;;25.42;35.96;95233.09;4994528;28;20044;-57
2021/11/04 06:47:13;;;;;;;0.10;0.10;;;;;;;25.40;35.80;95232.41;4992147;28;20037;-59
2021/11/04 06:49:39;;;;;;;0.10;0.10;;;;;;;25.41;35.80;95234.06;5003087;28;20034;-57
2021/11/04 06:52:04;;;;;;;10.68;0.63;;;;;;;25.41;35.55;95244.53;5002353;28;20026;-59
2021/11/04 06:54:30;;;;;;;2.17;0.38;;;;;;;25.39;35.25;95246.44;4977159;28;20144;-57
2021/11/04 06:56:55;;;;;;;0.93;0.40;;;;;;;25.38;35.47;95255.25;5001777;28;20302;-59
2021/11/04 06:59:25;;;;;;;3.70;1.25;;;;;;;25.36;35.34;95262.44;5005014;28;20026;-59
2021/11/04 07:02:00;;;;;;;4.85;0.70;;;;;;;25.35;34.06;95258.13;5002536;28;20780;-58
2021/11/04 07:04:33;;;;;;;2.30;0.70;;;;;;;25.33;33.30;95262.66;4993572;28;20089;-60
2021/11/04 07:07:07;;;;;;;3.75;0.90;;;;;;;25.27;32.77;95270.03;4989604;28;20030;-60
2021/11/04 07:09:41;;;;;;;1.77;0.65;;;;;;;25.23;32.33;95276.44;4987041;28;22057;-58
2021/11/04 07:12:08;;;;;;;2.75;0.80;;;;;;;25.18;32.17;95276.78;4987443;28;20026;-58
2021/11/04 07:14:34;;;;;;;8.60;1.13;;;;;;;25.15;32.06;95281.44;4988358;28;20034;-58
2021/11/04 07:17:00;;;;;;;4.72;1.33;;;;;;;25.12;31.93;95286.88;4986912;28;20117;-59
2021/11/04 07:19:26;;;;;;;5.15;1.50;;;;;;;25.08;31.95;95296.78;4987979;28;20026;-59
2021/11/04 07:22:12;;;;;;;4.32;1.35;;;;;;;25.04;31.87;95304.03;4985732;28;20030;-61
2021/11/04 07:24:47;;;;;;;4.15;1.45;;;;;;;25.02;31.83;95300.69;4988147;28;20512;-58
2021/11/04 07:27:17;;;;;;;6.72;1.23;;;;;;;25.00;31.94;95310.44;4985774;28;20340;-58
2021/11/04 07:29:46;;;;;;;5.53;1.70;;;;;;;24.97;32.04;95305.41;4982909;28;20034;-58
2021/11/04 07:32:14;;;;;;;5.72;1.30;;;;;;;24.95;31.84;95306.50;4989983;28;20034;-59
2021/11/04 07:34:41;;;;;;;4.47;1.45;;;;;;;24.93;31.74;95309.22;4986890;28;20034;-58
2021/11/04 07:37:07;;;;;;;8.68;1.70;;;;;;;24.92;32.16;95313.63;4983904;28;20038;-60
2021/11/04 07:39:32;;;;;;;5.68;1.80;;;;;;;24.92;33.01;95318.88;4986416;28;20797;-59
2021/11/04 07:41:58;;;;;;;7.18;2.05;;;;;;;24.93;33.56;95319.69;4986998;28;20030;-59
2021/11/04 07:44:23;;;;;;;5.15;2.00;;;;;;;24.96;33.88;95329.13;4981729;28;20033;-61
2021/11/04 07:46:48;;;;;;;5.25;1.85;;;;;;;24.97;34.02;95333.44;4982519;28;20038;-58
2021/11/04 07:49:14;;;;;;;4.18;1.60;;;;;;;24.98;34.19;95338.53;4990139;28;20037;-59
2021/11/04 07:51:40;;;;;;;5.03;1.60;;;;;;;25.02;34.47;95341.78;4985438;28;20843;-60
2021/11/04 07:54:06;;;;;;;6.82;2.00;;;;;;;25.03;34.54;95335.59;4987955;28;20132;-57
2021/11/04 07:56:33;;;;;;;4.10;1.80;;;;;;;25.05;34.55;95345.00;5002400;28;20530;-62
2021/11/04 07:58:59;;;;;;;5.38;1.88;;;;;;;25.08;34.64;95348.34;4984530;28;20034;-60
2021/11/04 08:01:24;;;;;;;6.32;1.95;;;;;;;25.10;34.83;95347.31;4989067;28;20030;-59
2021/11/04 08:03:50;;;;;;;4.20;1.85;;;;;;;25.11;34.89;95358.63;4984101;28;20030;-60
2021/11/04 08:06:15;;;;;;;9.10;2.92;;;;;;;25.12;34.90;95355.03;4984925;28;20639;-58
2021/11/04 08:08:41;;;;;;;7.43;2.63;;;;;;;25.14;34.60;95366.25;4986485;28;20135;-59
2021/11/04 08:11:06;;;;;;;9.93;2.30;;;;;;;25.14;34.75;95361.84;5005895;28;20944;-60
2021/11/04 08:13:32;;;;;;;4.28;2.10;;;;;;;25.15;34.76;95365.31;4990008;28;20033;-59
2021/11/04 08:15:57;;;;;;;4.22;2.45;;;;;;;25.16;34.82;95367.81;4991551;28;20049;-60
2021/11/04 08:18:24;;;;;;;5.30;2.00;;;;;;;25.18;34.78;95370.34;4987537;28;20218;-60
2021/11/04 08:20:50;;;;;;;9.30;2.13;;;;;;;25.18;34.98;95365.09;4987516;28;21579;-60
2021/11/04 08:23:16;;;;;;;7.32;2.13;;;;;;;25.20;34.90;95375.47;4987469;28;20037;-61
2021/11/04 08:25:43;;;;;;;5.13;2.00;;;;;;;25.22;35.05;95376.19;4985734;28;20081;-59
2021/11/04 08:28:08;;;;;;;5.55;2.25;;;;;;;25.23;35.16;95380.47;4984977;28;20395;-57
2021/11/04 08:30:34;;;;;;;5.97;2.50;;;;;;;25.22;35.20;95379.66;4999682;28;20077;-58
2021/11/04 08:32:59;;;;;;;7.85;2.10;;;;;;;25.24;35.16;95385.59;4984602;28;20052;-60
2021/11/04 08:35:25;;;;;;;5.45;2.30;;;;;;;25.26;35.18;95388.13;4982098;28;20029;-59
2021/11/04 08:37:50;;;;;;;5.28;1.90;;;;;;;25.27;35.18;95393.25;4989339;28;20030;-57
2021/11/04 08:40:16;;;;;;;4.15;2.10;;;;;;;25.28;35.47;95397.53;4999487;28;20034;-59
2021/11/04 08:42:41;;;;;;;5.05;1.77;;;;;;;25.27;35.35;95390.63;4986147;28;20544;-59
2021/11/04 08:45:07;;;;;;;4.10;1.90;;;;;;;25.29;35.42;95401.00;4981183;28;20620;-59
2021/11/04 08:47:32;;;;;;;7.68;2.28;;;;;;;25.31;35.34;95402.56;4985278;28;20036;-59
2021/11/04 08:49:58;;;;;;;5.50;1.90;;;;;;;25.31;35.45;95402.56;4984071;28;20022;-59
2021/11/04 08:52:24;;;;;;;3.40;1.67;;;;;;;25.33;35.40;95404.22;4983884;28;20026;-59
2021/11/04 08:54:50;;;;;;;6.97;2.40;;;;;;;25.34;35.33;95412.00;4981608;28;20096;-59
2021/11/04 08:57:15;;;;;;;9.80;1.60;;;;;;;25.34;34.83;95405.91;4986432;28;20029;-59
2021/11/04 08:59:42;;;;;;;5.10;1.77;;;;;;;25.35;34.96;95418.09;4982839;28;20044;-59
2021/11/04 09:02:10;;;;;;;5.82;1.70;;;;;;;25.36;34.97;95419.75;4981778;28;20030;-59
2021/11/04 09:04:38;;;;;;;6.40;1.23;;;;;;;25.34;34.96;95414.63;4999938;28;20044;-58
2021/11/04 09:07:03;;;;;;;2.67;1.13;;;;;;;25.31;33.87;95418.31;4983198;28;20038;-60
2021/11/04 09:09:29;;;;;;;4.25;0.73;;;;;;;25.29;32.61;95425.44;4982914;28;20053;-59
2021/11/04 09:11:54;;;;;;;5.10;1.20;;;;;;;25.23;31.87;95430.28;4983240;28;20034;-59
2021/11/04 09:14:20;;;;;;;3.60;1.27;;;;;;;25.14;31.37;95434.41;4984229;28;20030;-60
2021/11/04 09:16:45;;;;;;;3.35;1.20;;;;;;;25.03;31.41;95429.94;4986181;28;20087;-58
2021/11/04 09:19:11;;;;;;;3.75;1.27;;;;;;;24.97;32.00;95436.47;4988409;28;20480;-60
2021/11/04 09:21:36;;;;;;;3.72;1.25;;;;;;;24.94;32.65;95451.56;4988525;28;20472;-59
2021/11/04 09:24:03;;;;;;;7.00;1.33;;;;;;;24.94;33.01;95449.78;4990023;28;20037;-59
2021/11/04 09:26:29;;;;;;;4.50;1.20;;;;;;;24.93;33.09;95445.47;4985264;28;20343;-60
2021/11/04 09:28:55;;;;;;;3.58;1.48;;;;;;;24.94;33.51;95460.25;4987662;28;20057;-59
2021/11/04 09:31:20;;;;;;;3.08;1.13;;;;;;;24.96;33.58;95460.16;4985538;28;20034;-58
2021/11/04 09:33:46;;;;;;;4.50;1.30;;;;;;;24.96;33.59;95461.00;4987976;28;20026;-58
2021/11/04 09:36:11;;;;;;;4.80;1.08;;;;;;;24.98;33.68;95464.34;4986223;28;20026;-59
2021/11/04 09:38:37;;;;;;;3.08;1.02;;;;;;;25.00;33.80;95472.09;4989425;28;20760;-59
2021/11/04 09:41:02;;;;;;;5.15;1.05;;;;;;;25.02;33.84;95476.28;4989796;28;20033;-58
2021/11/04 09:43:28;;;;;;;3.17;1.20;;;;;;;25.04;33.92;95490.13;4986921;28;20127;-59
2021/11/04 09:45:53;;;;;;;4.05;1.10;;;;;;;25.08;33.89;95497.75;4987582;28;20473;-58
2021/11/04 09:48:19;;;;;;;7.57;1.00;;;;;;;25.08;33.93;95500.38;4991434;28;20089;-59
2021/11/04 09:50:44;;;;;;;9.80;1.33;;;;;;;25.10;34.14;95508.97;4991689;28;20289;-59
2021/11/04 09:53:10;;;;;;;7.03;1.17;;;;;;;25.11;34.23;95510.66;4992410;28;20248;-59
2021/11/04 09:55:35;;;;;;;6.05;1.33;;;;;;;25.14;34.21;95518.31;4993458;28;20117;-60
2021/11/04 09:58:01;;;;;;;2.20;1.00;;;;;;;25.16;34.13;95521.63;4999265;28;20033;-58
2021/11/04 10:00:38;;;;;;;5.20;1.25;;;;;;;25.17;34.23;95521.53;4985666;28;20048;-58
2021/11/04 10:03:14;;;;;;;7.03;1.27;;;;;;;25.19;34.35;95526.69;5004000;28;20088;-57
2021/11/04 10:06:05;;;;;;;7.82;2.05;;;;;;;25.21;34.47;95527.41;5007266;28;20073;-61
2021/11/04 10:08:37;;;;;;;18.88;3.42;;;;;;;25.24;34.31;95539.47;5002979;28;20062;-60
2021/11/04 10:11:12;;;;;;;19.17;3.33;;;;;;;25.24;34.27;95535.03;4996071;28;20536;-59
2021/11/04 10:13:38;;;;;;;15.35;2.58;;;;;;;25.26;34.40;95538.41;4995922;28;20030;-57
2021/11/04 10:16:04;;;;;;;19.35;3.13;;;;;;;25.26;34.50;95538.41;4995023;28;20038;-59
2021/11/04 10:18:38;;;;;;;16.70;3.72;;;;;;;25.28;34.47;95547.00;4993991;28;20030;-59
2021/11/04 10:21:04;;;;;;;15.70;2.92;;;;;;;25.28;34.51;95549.63;4995398;28;20022;-58
2021/11/04 10:23:36;;;;;;;12.70;3.05;;;;;;;25.31;34.58;95553.81;4985261;28;20030;-59
2021/11/04 10:26:22;;;;;;;14.40;3.08;;;;;;;25.31;34.59;95554.66;4995065;28;20034;-59
2021/11/04 10:28:49;;;;;;;10.18;2.55;;;;;;;25.31;34.54;95557.28;4996623;28;20524;-58
2021/11/04 10:31:16;;;;;;;11.15;3.42;;;;;;;25.36;34.52;95561.34;4995282;28;20080;-59
2021/11/04 10:33:44;;;;;;;8.00;2.30;;;;;;;25.36;34.68;95567.41;4973892;28;20096;-60
2021/11/04 10:36:20;;;;;;;20.02;2.92;;;;;;;25.37;34.42;95561.25;4985031;28;20246;-59
2021/11/04 10:38:49;;;;;;;14.27;3.45;;;;;;;25.39;34.47;95569.00;4991647;28;20033;-59
2021/11/04 10:41:39;;;;;;;12.27;2.90;;;;;;;25.39;34.60;95574.22;4995945;28;20033;-59
2021/11/04 10:44:16;;;;;;;14.35;2.47;;;;;;;25.41;34.63;95582.84;4994159;28;20136;-59
2021/11/04 10:46:42;;;;;;;10.00;2.90;;;;;;;25.41;34.71;95580.22;4993474;28;20070;-58
2021/11/04 10:49:08;;;;;;;10.90;3.28;;;;;;;25.42;34.66;95592.38;4991080;28;20022;-57
2021/11/04 10:51:33;;;;;;;8.65;2.60;;;;;;;25.41;34.62;95585.47;4993833;28;20061;-57
2021/11/04 10:54:07;;;;;;;7.95;2.60;;;;;;;25.41;34.85;95594.19;4994069;28;20030;-60
2021/11/04 10:56:34;;;;;;;7.82;2.67;;;;;;;25.44;34.71;95590.50;4994009;28;20032;-59
2021/11/04 10:59:12;;;;;;;10.25;2.67;;;;;;;25.44;34.68;95595.75;4992623;28;20382;-59
2021/11/04 11:01:41;;;;;;;7.70;2.55;;;;;;;25.45;34.63;95597.41;4992781;28;20036;-59
2021/11/04 11:04:08;;;;;;;9.98;2.47;;;;;;;25.45;34.83;95600.03;4997891;28;20219;-59
2021/11/04 11:06:37;;;;;;;8.90;2.40;;;;;;;25.45;34.77;95613.16;4973226;28;20024;-57
2021/11/04 11:09:08;;;;;;;7.25;2.22;;;;;;;25.47;34.75;95610.44;4989298;28;20026;-59
2021/11/04 11:11:35;;;;;;;6.55;2.38;;;;;;;25.46;34.74;95609.59;4991528;28;20036;-60
2021/11/04 11:14:00;;;;;;;11.80;2.45;;;;;;;25.49;34.74;95621.63;4991807;28;20026;-58
2021/11/04 11:16:25;;;;;;;7.97;2.17;;;;;;;25.49;34.80;95627.72;4991348;28;20046;-58
2021/11/04 11:18:59;;;;;;;8.93;2.40;;;;;;;25.49;34.68;95630.34;4993130;28;20022;-57
2021/11/04 11:21:39;;;;;;;8.20;2.50;;;;;;;25.50;34.71;95634.66;4975725;28;20040;-60
2021/11/04 11:24:04;;;;;;;6.68;2.22;;;;;;;25.51;34.74;95643.38;4990345;28;20052;-57
2021/11/04 11:26:30;;;;;;;8.18;1.83;;;;;;;25.50;34.64;95642.50;4978389;28;20026;-59
2021/11/04 11:28:56;;;;;;;5.95;2.30;;;;;;;25.51;34.81;95646.81;4991043;28;20484;-60
2021/11/04 11:31:22;;;;;;;6.72;1.95;;;;;;;25.52;34.83;95648.47;4993301;28;20096;-59